Aeroporto :
LOGIN :

Iscrizione | Disclaimer

   EN    FR    IT 

 










Sommario :    VFR   VFR Marginale   IFR   IFR Intensivo   IFR Molto Intensivo
Visibilità : 
Base nubi : 
>= 8 km
>= 3000ft
5 / 8 km
1000 / 3000 ft
1500m / 5 km
500 / 1000 ft
800 / 1500m
200 / 500 ft
< 800m
< 200 ft
Simboli :   Temporali  Nebbia  Neve Forte  Precipitazioni Forti  Vento > 20 kt
SIGMETs :   Varie  Temporali  Ghiacco  Turbolenza  Onda orograficha  Ceneri Vulcaniche






- Altitudine del aeroporto : 7 ft
- Codice IATA : VCE


LIPZ - Marco Polo Int. Venezia

ULTIMO METAR :
  • 131620Z 11006KT 080V140 CAVOK 26/09 Q1017 NOSIG

METARs OBSOLETI :
  • 131550Z 12006KT 090V150 CAVOK 26/09 Q1017 NOSIG
  • 131520Z 11008KT CAVOK 26/08 Q1018 NOSIG
  • 131450Z 11007KT 090V150 CAVOK 26/09 Q1018 NOSIG
  • 131420Z 14006KT 110V200 CAVOK 26/10 Q1018 NOSIG
  • 131350Z 13006KT 090V160 CAVOK 26/09 Q1019 NOSIG

TAF TAF LIPZ
Valido dal 13 a 12 ore il 14 a 18 ore UTC


131100Z 1312/1418 10010KT 9999 SCT040
BECMG 1318/1320 02010KT
BECMG 1408/1410 10010KT



MetMap, La meteo Aeronautica in un colpo d'occhio ! - Copyright ORBIFLY Dicembre 2007 - Disclaimer

ORBIFLY MET'MAP TEAM :

Programmazione e sviluppo : Alexandra Zaïnal
Concezione : Baudouin d'Aumeries
Aiuto per la programmazione : Marc-Olivier Méhu
Supporto tecnico e logistico : Manuel Goepfert
Aiuto per la traduzione : Arnaldo La Scala

Contatto : metmap@orbifly.com




FONTI E CREDITI :

   NOAA